Time;durP1;ratioP1;P1;durP2;ratioP2;P2;SDS_P1;SDS_P2;PMS_P1;PMS_P2;Temp;Humidity;BMP_temperature;BMP_pressure;BME280_temperature;BME280_humidity;BME280_pressure;Samples;Min_cycle;Max_cycle;Signal;HPM_P1;HPM_P2
2023/07/29 00:02:09;;;;;;;6.13;5.60;;;24.90;48.50;;;;;;5155887;27;20494;-51
2023/07/29 00:04:34;;;;;;;4.80;4.40;;;24.90;48.50;;;;;;5155893;27;20955;-54
2023/07/29 00:07:00;;;;;;;5.23;4.73;;;24.90;48.60;;;;;;5155744;27;20178;-52
2023/07/29 00:09:26;;;;;;;4.30;4.00;;;24.90;48.60;;;;;;5155322;27;20210;-53
2023/07/29 00:11:52;;;;;;;4.73;3.70;;;24.80;48.60;;;;;;5155929;27;20204;-54
2023/07/29 00:14:17;;;;;;;3.97;3.60;;;24.80;48.80;;;;;;5155791;27;20270;-51
2023/07/29 00:16:43;;;;;;;4.27;3.13;;;24.80;48.80;;;;;;5155748;27;20195;-53
2023/07/29 00:19:09;;;;;;;3.80;3.20;;;24.80;48.70;;;;;;5155553;27;20201;-54
2023/07/29 00:21:35;;;;;;;4.10;3.43;;;24.80;48.80;;;;;;5155505;27;20919;-52
2023/07/29 00:24:01;;;;;;;3.50;2.90;;;24.80;48.80;;;;;;5155474;27;20185;-52
2023/07/29 00:26:28;;;;;;;5.53;3.03;;;24.80;48.70;;;;;;5155481;27;20414;-53
2023/07/29 00:28:56;;;;;;;3.10;2.80;;;24.80;48.80;;;;;;5155137;27;20820;-52
2023/07/29 00:31:21;;;;;;;3.83;3.20;;;24.80;49.10;;;;;;5155226;27;20972;-51
2023/07/29 00:33:47;;;;;;;3.33;2.60;;;24.80;49.00;;;;;;5155314;27;20512;-55
2023/07/29 00:36:13;;;;;;;4.63;3.60;;;24.80;49.10;;;;;;5155391;27;20506;-52
2023/07/29 00:38:39;;;;;;;3.30;3.00;;;24.80;49.30;;;;;;5155125;27;20685;-54
2023/07/29 00:41:05;;;;;;;3.83;3.20;;;24.90;49.40;;;;;;5155326;27;20213;-54
2023/07/29 00:43:31;;;;;;;5.13;3.63;;;24.90;49.30;;;;;;5155447;27;20508;-53
2023/07/29 00:45:57;;;;;;;3.50;3.20;;;24.90;49.10;;;;;;5155001;27;20908;-52
2023/07/29 00:48:24;;;;;;;3.67;3.37;;;24.90;49.20;;;;;;5154239;27;20201;-54
2023/07/29 00:50:50;;;;;;;4.37;3.97;;;24.80;49.20;;;;;;5154564;27;20403;-54
2023/07/29 00:53:16;;;;;;;5.80;3.50;;;24.80;49.10;;;;;;5155076;27;20474;-51
2023/07/29 00:55:43;;;;;;;3.20;2.90;;;24.80;49.10;;;;;;5154861;27;20434;-55
2023/07/29 00:58:10;;;;;;;3.80;3.40;;;24.80;49.30;;;;;;5154361;27;20213;-55
2023/07/29 01:00:36;;;;;;;4.60;2.90;;;24.70;49.30;;;;;;5154713;27;20793;-52
2023/07/29 01:03:02;;;;;;;4.40;3.50;;;24.70;49.40;;;;;;5154568;27;20403;-51
2023/07/29 01:05:35;;;;;;;3.47;3.20;;;24.70;49.50;;;;;;5154844;27;20494;-53
2023/07/29 01:08:25;;;;;;;3.10;2.73;;;24.80;49.50;;;;;;5154322;27;20459;-51
2023/07/29 01:11:01;;;;;;;3.93;3.40;;;24.70;49.20;;;;;;5154443;27;20384;-54
2023/07/29 01:13:47;;;;;;;4.47;3.90;;;24.70;49.30;;;;;;5154472;27;20403;-51
2023/07/29 01:16:43;;;;;;;4.40;3.97;;;24.70;49.20;;;;;;5154545;27;20383;-53
2023/07/29 01:19:29;;;;;;;3.67;3.27;;;24.60;49.20;;;;;;5150991;27;20431;-53
2023/07/29 01:21:55;;;;;;;4.33;3.50;;;24.60;49.30;;;;;;5154326;27;20376;-50
2023/07/29 01:24:21;;;;;;;4.13;3.53;;;24.50;49.50;;;;;;5154396;27;20395;-50
2023/07/29 01:26:47;;;;;;;8.40;4.43;;;24.60;49.40;;;;;;5154434;27;20489;-54
2023/07/29 01:29:13;;;;;;;4.07;3.20;;;24.60;49.40;;;;;;5154060;27;20194;-53
2023/07/29 01:31:44;;;;;;;3.90;3.50;;;24.60;49.50;;;;;;5154437;27;20201;-52
2023/07/29 01:34:17;;;;;;;5.80;3.70;;;24.60;49.50;;;;;;5154135;27;20166;-54
2023/07/29 01:36:46;;;;;;;4.50;3.07;;;24.60;49.40;;;;;;5154151;27;20872;-53
2023/07/29 01:39:14;;;;;;;4.53;2.73;;;24.50;49.30;;;;;;5153846;27;20427;-51
2023/07/29 01:41:41;;;;;;;17.97;4.00;;;24.50;49.10;;;;;;5154305;27;20399;-53
2023/07/29 01:44:07;;;;;;;4.53;3.13;;;24.50;49.20;;;;;;5154100;27;20509;-53
2023/07/29 01:46:37;;;;;;;3.57;3.27;;;24.50;49.10;;;;;;5153932;27;20406;-51
2023/07/29 01:49:02;;;;;;;4.47;3.33;;;24.50;49.30;;;;;;5153888;27;20450;-54
2023/07/29 01:51:28;;;;;;;4.67;3.57;;;24.40;49.20;;;;;;5154061;27;20399;-52
2023/07/29 01:53:55;;;;;;;5.50;3.40;;;24.40;49.20;;;;;;5154023;27;20681;-52
2023/07/29 01:56:21;;;;;;;3.23;2.93;;;24.40;49.30;;;;;;5154129;27;20185;-52
2023/07/29 01:58:47;;;;;;;4.60;3.63;;;24.40;49.20;;;;;;5153401;27;20475;-54
2023/07/29 02:01:13;;;;;;;3.37;3.07;;;24.30;49.30;;;;;;5153408;27;21052;-54
2023/07/29 02:03:39;;;;;;;3.70;3.40;;;24.30;49.10;;;;;;5153759;27;20227;-52
2023/07/29 02:06:05;;;;;;;5.03;3.40;;;24.30;49.20;;;;;;5153836;27;20403;-51
2023/07/29 02:08:30;;;;;;;5.00;2.93;;;24.20;49.20;;;;;;5153378;27;20193;-54
2023/07/29 02:10:56;;;;;;;4.60;4.20;;;24.20;49.30;;;;;;5153638;27;20508;-53
2023/07/29 02:13:22;;;;;;;4.60;2.60;;;24.20;49.30;;;;;;5153637;27;20173;-52
2023/07/29 02:15:48;;;;;;;3.27;2.60;;;24.10;49.30;;;;;;5153609;27;20169;-54
2023/07/29 02:18:13;;;;;;;5.37;3.90;;;24.10;49.20;;;;;;5153260;27;20317;-53
2023/07/29 02:20:40;;;;;;;2.97;2.67;;;24.10;49.20;;;;;;5153659;27;20561;-54
2023/07/29 02:23:06;;;;;;;3.43;3.13;;;24.10;49.30;;;;;;5153739;27;20201;-53
2023/07/29 02:25:35;;;;;;;3.10;2.80;;;24.10;49.50;;;;;;5153591;27;20499;-54
2023/07/29 02:28:03;;;;;;;3.67;3.37;;;24.10;49.50;;;;;;5153231;27;20178;-52
2023/07/29 02:30:29;;;;;;;3.40;3.10;;;24.00;49.40;;;;;;5153662;27;20480;-53
2023/07/29 02:32:54;;;;;;;3.70;2.90;;;24.00;49.40;;;;;;5153508;27;20423;-54
2023/07/29 02:35:20;;;;;;;4.57;3.20;;;24.00;49.30;;;;;;5153746;27;20531;-53
2023/07/29 02:37:46;;;;;;;4.20;3.50;;;23.90;49.50;;;;;;5153328;27;20177;-54
2023/07/29 02:40:12;;;;;;;3.03;2.73;;;24.00;49.50;;;;;;5153276;27;20186;-53
2023/07/29 02:42:38;;;;;;;2.80;2.30;;;23.90;49.50;;;;;;5153486;27;20166;-50
2023/07/29 02:45:04;;;;;;;2.73;2.53;;;23.90;49.40;;;;;;5153350;27;20223;-54
2023/07/29 02:47:30;;;;;;;3.53;3.07;;;23.90;49.60;;;;;;5153530;27;20408;-53
2023/07/29 02:49:56;;;;;;;3.23;2.73;;;23.90;49.70;;;;;;5152904;27;20458;-52
2023/07/29 02:52:21;;;;;;;2.70;2.40;;;23.90;49.80;;;;;;5153316;27;20162;-54
2023/07/29 02:54:47;;;;;;;5.03;2.87;;;23.90;50.00;;;;;;5153436;27;20193;-54
2023/07/29 02:57:13;;;;;;;4.63;2.70;;;23.90;50.00;;;;;;5153388;27;20166;-52
2023/07/29 02:59:39;;;;;;;3.67;2.70;;;23.90;50.00;;;;;;5152882;27;20211;-51
2023/07/29 03:02:05;;;;;;;3.80;2.60;;;23.90;50.10;;;;;;5153360;27;20758;-54
2023/07/29 03:04:31;;;;;;;5.63;2.40;;;24.00;49.90;;;;;;5153121;27;20794;-52
2023/07/29 03:06:59;;;;;;;4.90;2.90;;;24.00;50.00;;;;;;5153334;27;20419;-54
2023/07/29 03:09:25;;;;;;;2.93;2.40;;;24.00;50.20;;;;;;5152783;27;20202;-51
2023/07/29 03:11:52;;;;;;;7.10;3.03;;;24.00;50.30;;;;;;5153120;27;20395;-51
2023/07/29 03:14:18;;;;;;;3.23;2.50;;;24.00;50.30;;;;;;5156599;27;20186;-55
2023/07/29 03:16:44;;;;;;;2.20;2.00;;;24.00;50.50;;;;;;5156725;27;20410;-52
2023/07/29 03:19:10;;;;;;;4.60;2.80;;;24.00;50.60;;;;;;5156321;27;20423;-52
2023/07/29 03:21:37;;;;;;;3.10;2.80;;;24.00;50.60;;;;;;5156824;27;20198;-54
2023/07/29 03:24:03;;;;;;;6.60;3.20;;;24.00;50.70;;;;;;5156819;27;20930;-53
2023/07/29 03:26:29;;;;;;;3.20;2.70;;;24.00;50.70;;;;;;5156891;27;20407;-52
2023/07/29 03:28:55;;;;;;;7.20;3.67;;;24.10;50.70;;;;;;5156202;27;20451;-55
2023/07/29 03:31:20;;;;;;;3.60;2.40;;;24.10;50.80;;;;;;5156733;27;20402;-53
2023/07/29 03:33:46;;;;;;;2.63;2.43;;;24.10;50.90;;;;;;5156527;27;20172;-52
2023/07/29 03:36:12;;;;;;;4.07;2.90;;;24.10;50.80;;;;;;5156574;27;20192;-55
2023/07/29 03:38:40;;;;;;;3.87;2.70;;;24.10;50.80;;;;;;5156170;27;20227;-51
2023/07/29 03:41:08;;;;;;;4.70;2.67;;;24.10;51.00;;;;;;5156384;27;20197;-53
2023/07/29 03:43:34;;;;;;;5.50;2.80;;;24.10;51.10;;;;;;5156324;27;20399;-54
2023/07/29 03:46:00;;;;;;;3.07;2.63;;;24.10;51.10;;;;;;5156691;27;20399;-54
2023/07/29 03:48:26;;;;;;;5.87;2.90;;;24.10;51.10;;;;;;5156038;27;20423;-52
2023/07/29 03:50:52;;;;;;;5.73;2.50;;;24.10;51.10;;;;;;5156208;27;20419;-53
2023/07/29 03:53:18;;;;;;;2.83;2.23;;;24.10;51.20;;;;;;5156331;27;20484;-53
2023/07/29 03:55:44;;;;;;;3.30;2.53;;;24.20;51.00;;;;;;5156252;27;20174;-51
2023/07/29 03:58:09;;;;;;;2.90;2.60;;;24.30;51.10;;;;;;5155693;27;20205;-56
2023/07/29 04:00:35;;;;;;;2.63;2.43;;;24.30;50.80;;;;;;5156094;27;20410;-53
2023/07/29 04:03:01;;;;;;;2.93;2.53;;;24.30;50.50;;;;;;5155983;27;20523;-51
2023/07/29 04:05:27;;;;;;;3.33;1.97;;;24.40;50.40;;;;;;5155842;27;20177;-53
2023/07/29 04:07:54;;;;;;;2.70;1.80;;;24.40;50.20;;;;;;5155514;27;20166;-55
2023/07/29 04:10:19;;;;;;;2.33;1.90;;;24.40;50.00;;;;;;5155852;27;20269;-50
2023/07/29 04:12:45;;;;;;;2.60;1.87;;;24.40;49.80;;;;;;5155919;27;20521;-54
2023/07/29 04:15:11;;;;;;;2.50;1.80;;;24.50;50.00;;;;;;5155705;27;20892;-51
2023/07/29 04:17:37;;;;;;;1.80;1.40;;;24.50;50.00;;;;;;5155522;27;20166;-55
2023/07/29 04:20:03;;;;;;;2.67;1.90;;;24.60;50.00;;;;;;5155486;27;20197;-53
2023/07/29 04:22:29;;;;;;;2.93;2.07;;;24.60;50.20;;;;;;5155529;27;20168;-51
2023/07/29 04:24:54;;;;;;;2.40;2.10;;;24.60;49.60;;;;;;5155353;27;20414;-52
2023/07/29 04:27:20;;;;;;;2.60;2.13;;;24.70;49.70;;;;;;5155273;27;20174;-54
2023/07/29 04:29:46;;;;;;;2.60;2.10;;;24.80;49.30;;;;;;5155087;27;20231;-52
2023/07/29 04:32:12;;;;;;;3.37;1.90;;;24.80;49.40;;;;;;5155252;27;20711;-56
2023/07/29 04:34:37;;;;;;;1.90;1.53;;;24.80;49.50;;;;;;5155541;27;20198;-56
2023/07/29 04:37:03;;;;;;;2.40;2.07;;;24.80;49.30;;;;;;5155268;27;20177;-51
2023/07/29 04:39:29;;;;;;;3.83;1.90;;;24.90;49.20;;;;;;5154799;27;20194;-51
2023/07/29 04:41:57;;;;;;;2.10;1.40;;;24.90;49.20;;;;;;5153762;27;20411;-53
2023/07/29 04:44:23;;;;;;;3.20;1.80;;;24.90;49.30;;;;;;5155431;27;20174;-52
2023/07/29 04:46:48;;;;;;;2.47;1.70;;;25.00;49.30;;;;;;5154930;27;20806;-52
2023/07/29 04:49:14;;;;;;;2.70;1.83;;;25.00;49.30;;;;;;5154540;27;20471;-54
2023/07/29 04:51:40;;;;;;;2.00;1.47;;;25.00;48.80;;;;;;5154799;27;20558;-52
2023/07/29 04:54:06;;;;;;;1.80;1.50;;;25.00;49.00;;;;;;5154744;27;20198;-52
2023/07/29 04:56:31;;;;;;;2.43;1.60;;;25.00;49.00;;;;;;5154704;27;20211;-54
2023/07/29 04:58:57;;;;;;;2.80;1.60;;;25.10;49.20;;;;;;5154268;27;20209;-52
2023/07/29 05:01:23;;;;;;;4.07;1.83;;;25.10;49.50;;;;;;5154644;27;20184;-51
2023/07/29 05:03:49;;;;;;;2.30;1.87;;;25.10;49.50;;;;;;5154607;27;20169;-54
2023/07/29 05:06:14;;;;;;;2.33;1.87;;;25.10;49.30;;;;;;5154507;27;20192;-52
2023/07/29 05:08:40;;;;;;;3.13;1.60;;;25.10;49.20;;;;;;5154142;27;20276;-52
2023/07/29 05:11:06;;;;;;;1.60;1.50;;;25.20;48.90;;;;;;5154354;27;20178;-54
2023/07/29 05:13:32;;;;;;;2.47;1.50;;;25.20;48.80;;;;;;5154416;27;20162;-52
2023/07/29 05:15:58;;;;;;;4.33;1.70;;;25.20;48.90;;;;;;5154571;27;20201;-52
2023/07/29 05:18:23;;;;;;;2.17;1.70;;;25.30;48.70;;;;;;5154077;27;20678;-54
2023/07/29 05:20:49;;;;;;;2.00;1.80;;;25.30;49.70;;;;;;5154386;27;20230;-54
2023/07/29 05:23:15;;;;;;;4.63;1.70;;;25.30;48.80;;;;;;5154235;27;20658;-52
2023/07/29 05:25:41;;;;;;;2.00;1.30;;;25.30;48.50;;;;;;5154159;27;20169;-51
2023/07/29 05:28:07;;;;;;;2.13;1.63;;;25.40;48.60;;;;;;5153870;27;20411;-54
2023/07/29 05:30:37;;;;;;;2.40;1.50;;;25.40;48.50;;;;;;5154166;27;20233;-51
2023/07/29 05:33:04;;;;;;;3.20;1.40;;;25.50;48.20;;;;;;5154218;27;20178;-53
2023/07/29 05:35:30;;;;;;;2.57;2.17;;;25.50;48.30;;;;;;5153489;27;20928;-53
2023/07/29 05:37:56;;;;;;;2.30;1.50;;;25.50;48.20;;;;;;5153905;27;20446;-55
2023/07/29 05:40:22;;;;;;;1.97;1.50;;;25.50;48.40;;;;;;5154310;27;20407;-52
2023/07/29 05:42:48;;;;;;;2.30;1.50;;;25.60;48.10;;;;;;5154237;27;20174;-51
2023/07/29 05:45:14;;;;;;;2.07;1.57;;;25.70;48.20;;;;;;5154053;27;20414;-54
2023/07/29 05:47:40;;;;;;;2.73;1.60;;;25.80;48.40;;;;;;5153848;27;20196;-52
2023/07/29 05:50:06;;;;;;;2.77;1.50;;;25.90;48.10;;;;;;5153481;27;20451;-55
2023/07/29 05:52:32;;;;;;;3.37;1.60;;;25.90;47.80;;;;;;5153813;27;20169;-55
2023/07/29 05:54:58;;;;;;;2.40;1.83;;;26.00;48.30;;;;;;5153798;27;20407;-51
2023/07/29 05:57:24;;;;;;;1.67;1.27;;;26.00;48.40;;;;;;5153758;27;20422;-52
2023/07/29 05:59:50;;;;;;;3.30;1.90;;;26.10;48.60;;;;;;5153254;27;20526;-53
2023/07/29 06:02:15;;;;;;;2.63;1.90;;;26.30;48.80;;;;;;5153737;27;20178;-53
2023/07/29 06:04:41;;;;;;;2.43;1.63;;;26.40;47.90;;;;;;5153844;27;20173;-52
2023/07/29 06:07:07;;;;;;;2.90;1.60;;;26.50;47.00;;;;;;5153677;27;20169;-51
2023/07/29 06:09:33;;;;;;;2.43;1.70;;;26.60;46.70;;;;;;5153461;27;20202;-55
2023/07/29 06:11:59;;;;;;;2.20;1.90;;;26.70;46.20;;;;;;5153677;27;20630;-54
2023/07/29 06:14:24;;;;;;;1.60;1.20;;;26.80;46.40;;;;;;5153604;27;20174;-51
2023/07/29 06:16:50;;;;;;;2.07;1.30;;;26.90;45.40;;;;;;5153625;27;20176;-52
2023/07/29 06:19:16;;;;;;;1.87;1.43;;;27.00;45.30;;;;;;5153321;27;20510;-53
2023/07/29 06:21:42;;;;;;;3.20;1.60;;;27.10;45.70;;;;;;5153459;27;20197;-51
2023/07/29 06:24:08;;;;;;;2.43;1.50;;;27.20;44.50;;;;;;5153643;27;20255;-53
2023/07/29 06:26:34;;;;;;;2.60;1.70;;;27.20;44.40;;;;;;5153805;27;20507;-51
2023/07/29 06:28:59;;;;;;;1.97;1.67;;;27.10;44.10;;;;;;5153623;27;20209;-53
2023/07/29 06:31:25;;;;;;;2.10;1.90;;;27.00;43.90;;;;;;5153622;27;20631;-51
2023/07/29 06:33:51;;;;;;;2.00;1.63;;;27.00;44.20;;;;;;5153684;27;20172;-51
2023/07/29 06:36:17;;;;;;;3.27;1.70;;;27.00;44.10;;;;;;5153509;27;20647;-55
2023/07/29 06:38:43;;;;;;;2.03;1.53;;;26.90;43.60;;;;;;5153474;27;20198;-53
2023/07/29 06:41:09;;;;;;;1.80;1.50;;;26.90;43.50;;;;;;5153803;27;20890;-52
2023/07/29 06:43:35;;;;;;;2.23;1.50;;;26.90;43.50;;;;;;5153567;27;20177;-55
2023/07/29 06:46:00;;;;;;;2.00;1.57;;;26.90;44.00;;;;;;5153383;27;20539;-51
2023/07/29 06:48:26;;;;;;;1.63;1.40;;;26.90;43.60;;;;;;5155709;27;20286;-54
2023/07/29 06:50:52;;;;;;;1.70;1.50;;;26.90;43.90;;;;;;5157364;27;20166;-52
2023/07/29 06:53:18;;;;;;;2.20;1.40;;;27.00;44.10;;;;;;5157213;27;20169;-54
2023/07/29 06:55:44;;;;;;;1.50;1.20;;;27.00;44.80;;;;;;5157362;27;20173;-52
2023/07/29 06:58:10;;;;;;;2.03;1.63;;;27.00;44.60;;;;;;5156709;27;20612;-51
2023/07/29 07:00:36;;;;;;;2.00;1.60;;;27.00;44.90;;;;;;5157093;27;20932;-54
2023/07/29 07:03:02;;;;;;;2.00;1.80;;;27.10;45.10;;;;;;5157081;27;20410;-55
2023/07/29 07:05:28;;;;;;;2.97;1.80;;;27.30;45.50;;;;;;5156862;27;20215;-52
2023/07/29 07:07:53;;;;;;;2.10;1.77;;;27.40;45.40;;;;;;5156850;27;20161;-53
2023/07/29 07:10:19;;;;;;;1.70;1.37;;;27.50;44.60;;;;;;5156906;27;20193;-51
2023/07/29 07:12:45;;;;;;;2.83;1.50;;;27.50;44.10;;;;;;5156948;27;20560;-52
2023/07/29 07:15:11;;;;;;;1.63;1.30;;;27.60;43.10;;;;;;5157249;27;20238;-53
2023/07/29 07:17:37;;;;;;;2.40;1.90;;;27.70;42.90;;;;;;5157014;27;20174;-52
2023/07/29 07:20:03;;;;;;;2.13;1.43;;;27.70;42.20;;;;;;5156451;27;20201;-52
2023/07/29 07:22:29;;;;;;;3.80;2.00;;;27.80;43.00;;;;;;5156844;27;20406;-54
2023/07/29 07:24:55;;;;;;;1.83;1.47;;;27.80;42.00;;;;;;5156800;27;20448;-53
2023/07/29 07:27:21;;;;;;;2.17;1.47;;;27.90;42.40;;;;;;5156517;27;20399;-53
2023/07/29 07:29:46;;;;;;;6.33;2.13;;;27.90;41.50;;;;;;5156080;27;20450;-54
2023/07/29 07:32:12;;;;;;;2.97;1.90;;;28.00;43.10;;;;;;5156678;27;20166;-55
2023/07/29 07:34:38;;;;;;;2.23;1.80;;;28.10;42.20;;;;;;5156647;27;20386;-53
2023/07/29 07:37:04;;;;;;;2.50;1.60;;;28.10;44.30;;;;;;5157078;27;20170;-55
2023/07/29 07:39:31;;;;;;;1.90;1.60;;;28.20;42.70;;;;;;5156331;27;20757;-54
2023/07/29 07:41:57;;;;;;;2.93;1.70;;;28.30;41.30;;;;;;5156697;27;20903;-53
2023/07/29 07:44:22;;;;;;;9.27;1.60;;;28.40;41.30;;;;;;5156308;27;20405;-53
2023/07/29 07:46:48;;;;;;;2.17;1.30;;;28.40;39.90;;;;;;5156298;27;20253;-53
2023/07/29 07:49:14;;;;;;;2.23;1.53;;;28.60;40.10;;;;;;5155831;27;20247;-56
2023/07/29 07:51:40;;;;;;;5.63;5.10;;;28.60;39.60;;;;;;5156278;27;20170;-55
2023/07/29 07:54:06;;;;;;;1.80;1.40;;;28.70;39.60;;;;;;5143718;27;20175;-52
2023/07/29 07:56:32;;;;;;;3.60;1.60;;;28.70;38.50;;;;;;5135172;27;20404;-54
2023/07/29 07:58:58;;;;;;;3.07;1.63;;;28.80;39.50;;;;;;5134277;27;20458;-54
2023/07/29 08:01:23;;;;;;;1.93;1.30;;;28.80;38.80;;;;;;5135440;27;20198;-53
2023/07/29 08:03:49;;;;;;;2.30;1.50;;;28.80;39.50;;;;;;5135301;27;20736;-54
2023/07/29 08:06:15;;;;;;;2.23;1.07;;;28.80;40.40;;;;;;5135083;27;20172;-54
2023/07/29 08:08:41;;;;;;;1.90;1.50;;;28.90;38.10;;;;;;5134674;27;20619;-52
2023/07/29 08:11:06;;;;;;;2.63;1.70;;;28.90;37.00;;;;;;5135099;27;20171;-54
2023/07/29 08:13:32;;;;;;;4.00;1.40;;;28.90;37.40;;;;;;5134990;27;20169;-54
2023/07/29 08:15:58;;;;;;;2.20;1.40;;;28.80;38.30;;;;;;5134990;27;20577;-53
2023/07/29 08:18:24;;;;;;;1.60;1.17;;;28.70;38.80;;;;;;5134483;27;20190;-53
2023/07/29 08:20:58;;;;;;;2.50;1.60;;;28.90;37.30;;;;;;5134822;27;20175;-54
2023/07/29 08:23:27;;;;;;;2.07;1.40;;;28.80;37.50;;;;;;5134841;27;20188;-52
2023/07/29 08:25:56;;;;;;;5.00;2.00;;;28.80;37.80;;;;;;5134581;27;20408;-52
2023/07/29 08:28:24;;;;;;;1.83;1.40;;;28.80;37.30;;;;;;5134534;27;20429;-54
2023/07/29 08:30:50;;;;;;;1.90;1.40;;;28.80;37.90;;;;;;5134532;27;20479;-52
2023/07/29 08:33:16;;;;;;;1.80;1.40;;;28.70;37.50;;;;;;5134827;27;20416;-52
2023/07/29 08:35:42;;;;;;;1.50;1.00;;;28.70;37.80;;;;;;5134862;27;20829;-54
2023/07/29 08:38:08;;;;;;;1.60;1.10;;;28.70;37.20;;;;;;5134151;27;20652;-52
2023/07/29 08:40:37;;;;;;;1.90;0.90;;;28.80;37.30;;;;;;5134543;27;20166;-54
2023/07/29 08:43:05;;;;;;;1.40;1.00;;;28.90;37.90;;;;;;5134390;27;20409;-55
2023/07/29 08:45:39;;;;;;;1.60;1.10;;;29.00;37.90;;;;;;5134284;27;20410;-52
2023/07/29 08:48:09;;;;;;;1.80;1.27;;;29.00;37.20;;;;;;5134187;27;21076;-53
2023/07/29 08:50:36;;;;;;;2.43;1.13;;;29.00;37.60;;;;;;5133914;27;20979;-54
2023/07/29 08:53:06;;;;;;;1.93;1.20;;;29.10;36.90;;;;;;5134180;27;20433;-51
2023/07/29 08:55:33;;;;;;;1.70;1.30;;;29.10;38.50;;;;;;5132895;27;20397;-53
2023/07/29 08:58:00;;;;;;;2.80;1.47;;;29.20;38.10;;;;;;5133572;27;20420;-51
2023/07/29 09:00:27;;;;;;;1.57;1.00;;;29.30;37.70;;;;;;5134022;27;20400;-51
2023/07/29 09:02:53;;;;;;;3.10;1.13;;;29.40;37.60;;;;;;5133919;27;20437;-54
2023/07/29 09:05:21;;;;;;;1.60;1.30;;;29.50;37.40;;;;;;5133971;27;20408;-51
2023/07/29 09:07:50;;;;;;;2.10;1.23;;;29.60;37.90;;;;;;5133790;27;20458;-51
2023/07/29 09:10:16;;;;;;;1.63;1.00;;;29.60;36.50;;;;;;5133130;27;20511;-55
2023/07/29 09:12:42;;;;;;;1.50;1.07;;;29.60;37.50;;;;;;5133605;27;20980;-52
2023/07/29 09:15:08;;;;;;;2.30;1.23;;;29.60;36.60;;;;;;5133683;27;20917;-52
2023/07/29 09:17:35;;;;;;;1.70;1.17;;;29.50;36.10;;;;;;5133750;27;20404;-53
2023/07/29 09:20:01;;;;;;;1.87;1.23;;;29.40;36.60;;;;;;5133370;27;20424;-53
2023/07/29 09:22:27;;;;;;;1.50;1.10;;;29.40;36.90;;;;;;5133536;27;20424;-51
2023/07/29 09:24:56;;;;;;;1.67;1.40;;;29.40;36.40;;;;;;5133574;27;20457;-50
2023/07/29 09:27:27;;;;;;;1.83;1.30;;;29.40;37.20;;;;;;5133478;27;20408;-55
2023/07/29 09:29:53;;;;;;;2.07;1.60;;;29.40;37.30;;;;;;5132987;27;20462;-50
2023/07/29 09:32:21;;;;;;;1.90;1.20;;;29.40;37.20;;;;;;5133514;27;20420;-51
2023/07/29 09:34:47;;;;;;;1.93;1.40;;;29.50;38.50;;;;;;5133370;27;20955;-54
2023/07/29 09:37:23;;;;;;;2.00;1.57;;;29.60;39.20;;;;;;5133441;27;20404;-52
2023/07/29 09:39:50;;;;;;;2.00;1.50;;;29.70;37.90;;;;;;5132929;27;20426;-52
2023/07/29 09:42:23;;;;;;;4.00;1.87;;;29.80;37.10;;;;;;5133231;27;20406;-51
2023/07/29 09:44:50;;;;;;;2.03;1.70;;;29.90;37.80;;;;;;5133250;27;20952;-52
2023/07/29 09:47:23;;;;;;;1.73;1.10;;;29.90;37.30;;;;;;5133157;27;20396;-52
2023/07/29 09:49:50;;;;;;;1.73;1.23;;;30.00;38.00;;;;;;5132831;27;20440;-54
2023/07/29 09:52:21;;;;;;;2.17;1.63;;;29.90;37.40;;;;;;5133009;27;20400;-52
2023/07/29 09:54:47;;;;;;;2.40;1.27;;;30.00;36.60;;;;;;5133099;27;20881;-55
2023/07/29 09:57:18;;;;;;;2.33;1.80;;;29.90;37.00;;;;;;5133116;27;20404;-53
2023/07/29 09:59:57;;;;;;;3.10;1.70;;;29.90;37.00;;;;;;5132764;27;20448;-51
2023/07/29 10:02:25;;;;;;;1.70;1.50;;;29.80;36.80;;;;;;5133010;27;20479;-53
2023/07/29 10:04:52;;;;;;;3.97;1.33;;;29.70;36.90;;;;;;5132946;27;20835;-53
2023/07/29 10:07:19;;;;;;;1.80;1.37;;;29.70;37.80;;;;;;5132871;27;20408;-51
2023/07/29 10:09:46;;;;;;;2.73;1.50;;;29.70;38.70;;;;;;5132600;27;20453;-53
2023/07/29 10:12:13;;;;;;;1.80;1.47;;;29.70;37.40;;;;;;5132877;27;20408;-53
2023/07/29 10:14:40;;;;;;;1.50;1.00;;;29.60;36.80;;;;;;5132895;27;20419;-51
2023/07/29 10:17:06;;;;;;;2.30;1.50;;;29.40;37.20;;;;;;5132856;27;20916;-50
2023/07/29 10:19:34;;;;;;;1.57;1.20;;;29.10;37.20;;;;;;5132793;27;20424;-54
2023/07/29 10:22:01;;;;;;;3.00;1.50;;;28.90;37.50;;;;;;5134815;27;20173;-54
2023/07/29 10:24:31;;;;;;;2.80;1.97;;;28.80;37.90;;;;;;5136962;27;20411;-51
2023/07/29 10:26:58;;;;;;;3.10;1.70;;;28.70;39.10;;;;;;5137075;27;20407;-52
2023/07/29 10:29:28;;;;;;;5.60;5.10;;;28.70;38.30;;;;;;5136473;27;20444;-53
2023/07/29 10:31:57;;;;;;;1.60;1.30;;;28.80;38.20;;;;;;5137075;27;20845;-54
2023/07/29 10:34:24;;;;;;;2.43;1.60;;;28.70;38.40;;;;;;5136836;27;20392;-53
2023/07/29 10:36:52;;;;;;;3.43;1.07;;;28.70;38.00;;;;;;5136800;27;21107;-54
2023/07/29 10:39:17;;;;;;;2.40;1.70;;;28.60;38.50;;;;;;5136417;27;20435;-52
2023/07/29 10:42:01;;;;;;;2.87;2.10;;;28.70;38.80;;;;;;5136749;27;20500;-52
2023/07/29 10:44:42;;;;;;;1.80;1.30;;;28.80;39.40;;;;;;5136837;27;20190;-52
2023/07/29 10:47:21;;;;;;;2.63;1.63;;;28.90;39.50;;;;;;5136616;27;20399;-54
2023/07/29 10:49:52;;;;;;;3.90;3.00;;;28.90;39.70;;;;;;5136429;27;20450;-52
2023/07/29 10:52:34;;;;;;;2.30;1.67;;;28.90;39.30;;;;;;5136526;27;20396;-53
2023/07/29 10:55:02;;;;;;;3.93;2.40;;;28.90;39.10;;;;;;5136703;27;20479;-51
2023/07/29 10:57:36;;;;;;;29.07;25.83;;;28.90;40.00;;;;;;5136537;27;20404;-53
2023/07/29 11:00:04;;;;;;;12.40;11.20;;;29.00;40.80;;;;;;5136068;27;20788;-54
2023/07/29 11:02:32;;;;;;;16.70;15.30;;;29.00;40.40;;;;;;5136417;27;20416;-51
2023/07/29 11:04:59;;;;;;;2.23;1.67;;;28.90;39.30;;;;;;5136306;27;20769;-52
2023/07/29 11:07:27;;;;;;;10.93;9.93;;;28.90;39.20;;;;;;5136067;27;20491;-53
2023/07/29 11:09:56;;;;;;;3.77;1.90;;;28.80;39.80;;;;;;5136094;27;20486;-52
2023/07/29 11:12:47;;;;;;;5.07;4.67;;;28.70;40.00;;;;;;5136152;27;20397;-52
2023/07/29 11:15:29;;;;;;;4.87;3.50;;;28.70;40.40;;;;;;5136174;27;20464;-52
2023/07/29 11:17:57;;;;;;;6.27;5.67;;;28.80;40.60;;;;;;5136376;27;20408;-54
2023/07/29 11:20:33;;;;;;;4.40;3.93;;;28.80;41.80;;;;;;5135967;27;20400;-50
2023/07/29 11:23:01;;;;;;;3.17;2.17;;;28.90;41.50;;;;;;5135934;27;20817;-54
2023/07/29 11:25:30;;;;;;;5.03;2.80;;;28.80;41.50;;;;;;5136184;27;20426;-54
2023/07/29 11:27:58;;;;;;;3.13;1.70;;;28.70;41.70;;;;;;5135429;27;20843;-54
2023/07/29 11:30:27;;;;;;;3.37;2.43;;;28.80;41.30;;;;;;5135996;27;20469;-52
2023/07/29 11:32:53;;;;;;;17.13;5.00;;;28.70;43.00;;;;;;5135155;27;20770;-54
2023/07/29 11:35:19;;;;;;;12.20;4.57;;;28.50;46.70;;;;;;5135592;27;20499;-51
2023/07/29 11:37:47;;;;;;;7.87;6.90;;;28.20;46.10;;;;;;5135521;27;20867;-51
2023/07/29 11:40:18;;;;;;;6.57;4.00;;;28.10;47.00;;;;;;5135583;27;20427;-54
2023/07/29 11:42:45;;;;;;;11.37;9.80;;;27.90;47.40;;;;;;5135688;27;20423;-55
2023/07/29 11:45:12;;;;;;;6.73;5.60;;;27.80;47.30;;;;;;5135482;27;20462;-51
2023/07/29 11:47:37;;;;;;;9.33;6.00;;;27.80;47.80;;;;;;5135551;27;20408;-51
2023/07/29 11:50:06;;;;;;;4.23;3.50;;;27.80;47.90;;;;;;5135356;27;20848;-54
2023/07/29 11:52:39;;;;;;;6.57;2.80;;;27.80;48.60;;;;;;5135374;27;20588;-53
2023/07/29 11:55:05;;;;;;;5.30;4.30;;;27.80;49.00;;;;;;5135198;27;20420;-50
2023/07/29 11:57:35;;;;;;;7.90;7.30;;;27.90;48.90;;;;;;5135083;27;21017;-54
2023/07/29 12:00:03;;;;;;;10.30;9.40;;;27.90;48.80;;;;;;5135148;27;20435;-54
2023/07/29 12:02:30;;;;;;;7.43;6.10;;;27.90;49.20;;;;;;5135055;27;20435;-51
2023/07/29 12:04:57;;;;;;;4.20;2.90;;;27.90;49.60;;;;;;5135042;27;20959;-53
2023/07/29 12:07:23;;;;;;;3.80;3.20;;;27.90;49.80;;;;;;5135017;27;20415;-53
2023/07/29 12:09:50;;;;;;;5.63;2.70;;;27.90;50.00;;;;;;5134465;27;20960;-52
2023/07/29 12:12:16;;;;;;;4.70;2.70;;;27.90;49.50;;;;;;5134979;27;20487;-54
2023/07/29 12:14:48;;;;;;;6.57;6.00;;;27.90;50.00;;;;;;5135206;27;20972;-53
2023/07/29 12:17:14;;;;;;;5.30;2.40;;;27.90;50.80;;;;;;5134879;27;20788;-55
2023/07/29 12:19:40;;;;;;;2.67;2.00;;;28.00;51.40;;;;;;5134538;27;20458;-53
2023/07/29 12:22:08;;;;;;;2.40;1.70;;;28.00;50.30;;;;;;5134682;27;20167;-52
2023/07/29 12:24:36;;;;;;;3.60;1.80;;;27.90;49.80;;;;;;5134662;27;20902;-51
2023/07/29 12:27:02;;;;;;;2.17;1.70;;;27.90;49.50;;;;;;5134687;27;20526;-53
2023/07/29 12:29:28;;;;;;;3.07;1.50;;;28.00;50.70;;;;;;5134554;27;20886;-51
2023/07/29 12:31:59;;;;;;;2.03;1.47;;;28.00;50.60;;;;;;5134495;27;20405;-54
2023/07/29 12:34:28;;;;;;;2.50;1.00;;;28.00;50.90;;;;;;5134523;27;20449;-54
2023/07/29 12:36:55;;;;;;;2.00;1.40;;;28.10;48.10;;;;;;5134293;27;20796;-52
2023/07/29 12:39:21;;;;;;;2.00;1.43;;;28.10;48.20;;;;;;5134084;27;20428;-51
2023/07/29 12:41:48;;;;;;;2.00;1.07;;;28.10;48.20;;;;;;5134301;27;20404;-53
2023/07/29 12:44:14;;;;;;;1.90;1.30;;;28.10;47.00;;;;;;5134280;27;20178;-54
2023/07/29 12:46:40;;;;;;;2.50;1.30;;;28.20;47.20;;;;;;5134375;27;20400;-52